Terminal Aerodrome Forecast
Issued by NWS

Home | Current Version | Previous Version | Text Only | Print | Product List | Glossary On
Versions: 1 2 3 4 5 6 7 8 9 10 11 12 13 14 15 16 17 18 19 20 21 22
000
FTUS43 KMPX 262321
TAFAXN
TAF
KAXN 262321Z 2700/2724 14010KT P6SM FEW045
     FM270200 14007KT P6SM FEW250
     FM270900 14005KT 5SM BR SKC
     FM271000 VRB02KT 2SM BR FEW250
     FM271300 13008KT P6SM FEW250
     FM271600 14012G19KT P6SM FEW050 BKN250=

USA.gov is the U.S. government's official web portal to all federal, state and local government web resources and services.